Time;durP1;ratioP1;P1;durP2;ratioP2;P2;SDS_P1;SDS_P2;PMS_P1;PMS_P2;Temp;Humidity;BMP_temperature;BMP_pressure;BME280_temperature;BME280_humidity;BME280_pressure;Samples;Min_cycle;Max_cycle;Signal;HPM_P1;HPM_P2
2024/02/01 00:05:19;;;;;;;52.50;24.10;;;;;;;-0.07;79.47;101069.57;126357;1298;636128;-63
2024/02/01 00:13:24;;;;;;;54.50;22.50;;;;;;;-0.24;79.41;101064.17;127847;1276;114923;-63
2024/02/01 00:17:26;;;;;;;48.70;22.30;;;;;;;-0.34;79.23;101055.34;123228;1287;5457197;-63
2024/02/01 00:21:27;;;;;;;52.80;23.50;;;;;;;-0.42;79.39;101055.63;125454;1312;114949;-64
2024/02/01 00:25:28;;;;;;;53.40;26.10;;;;;;;-0.49;79.51;101052.05;124743;1310;114980;-63
2024/02/01 00:33:34;;;;;;;49.40;23.80;;;;;;;-0.61;79.57;101026.69;126443;1304;636066;-63
2024/02/01 00:37:36;;;;;;;52.10;23.90;;;;;;;-0.67;79.82;101019.98;128512;1276;128965;-64
2024/02/01 00:41:37;;;;;;;43.60;21.60;;;;;;;-0.74;79.72;101018.17;127927;1289;114818;-62
2024/02/01 00:45:43;;;;;;;49.20;21.10;;;;;;;-0.80;79.58;101012.50;125965;1287;5425659;-63
2024/02/01 00:49:44;;;;;;;43.20;21.70;;;;;;;-0.87;79.82;101018.92;125633;1311;114878;-65
2024/02/01 00:53:46;;;;;;;49.90;24.90;;;;;;;-0.92;79.96;101028.54;125056;1309;129606;-63
2024/02/01 00:57:38;;;;;;;50.70;25.40;;;;;;;-0.99;79.96;101036.36;124520;1331;114889;-63
2024/02/01 01:05:51;;;;;;;50.20;24.50;;;;;;;-1.05;79.94;101031.39;125855;1296;636130;-63
2024/02/01 01:09:53;;;;;;;54.50;27.20;;;;;;;-1.13;79.96;101019.04;127781;1281;128396;-64
2024/02/01 01:13:56;;;;;;;49.00;23.80;;;;;;;-1.21;79.80;100999.67;126374;1311;114874;-63
2024/02/01 01:17:57;;;;;;;55.70;23.70;;;;;;;-1.26;80.23;100992.80;121657;1304;5435201;-63
2024/02/01 01:21:56;;;;;;;;;;;;;;;;;;;;;
2024/02/01 01:26:17;;;;;;;50.90;24.80;;;;;;;-1.28;80.27;100986.11;126335;1306;636113;-63
2024/02/01 01:30:19;;;;;;;51.40;25.60;;;;;;;-1.32;80.21;100988.35;127631;1283;128870;-63
2024/02/01 01:34:20;;;;;;;49.70;22.90;;;;;;;-1.34;80.21;100984.83;126834;1308;115066;-67
2024/02/01 01:38:24;;;;;;;46.70;21.50;;;;;;;-1.36;80.37;100973.77;122213;1313;5413029;-63
2024/02/01 01:42:25;;;;;;;48.60;24.20;;;;;;;-1.37;80.56;100975.86;125386;1301;116780;-66
2024/02/01 01:58:43;;;;;;;45.20;21.20;;;;;;;-1.39;81.26;100954.10;127286;1288;129097;-66
2024/02/01 02:02:46;;;;;;;43.00;21.50;;;;;;;-1.40;81.01;100951.83;126450;1287;114965;-65
2024/02/01 02:06:55;;;;;;;47.60;22.20;;;;;;;-1.41;81.20;100947.08;122026;1308;5444539;-64
2024/02/01 02:10:47;;;;;;;45.40;20.00;;;;;;;-1.42;81.21;100937.09;124053;1312;114975;-63
2024/02/01 02:14:55;;;;;;;50.20;23.20;;;;;;;-1.44;81.20;100929.55;123785;1334;114993;-66
2024/02/01 02:23:16;;;;;;;45.60;24.40;;;;;;;-1.42;81.10;100906.60;126422;1296;635290;-63
2024/02/01 02:31:14;;;;;;;47.80;22.70;;;;;;;-1.43;81.07;100914.48;126874;1289;114981;-64
2024/02/01 02:35:22;;;;;;;46.70;21.10;;;;;;;-1.43;81.37;100908.17;123041;1289;5509917;-63
2024/02/01 02:39:22;;;;;;;;;;;;;;;;;;;;;
2024/02/01 02:47:42;;;;;;;;;;;;;;;;;;;;;
2024/02/01 02:51:35;;;;;;;;;;;;;;;;;;;;;
2024/02/01 02:55:39;;;;;;;51.80;26.90;;;;;;;-1.39;81.62;100885.96;126343;1304;114894;-68
2024/02/01 02:59:44;;;;;;;52.20;27.10;;;;;;;-1.38;81.90;100884.56;121887;1302;5459864;-64
2024/02/01 03:03:44;;;;;;;51.70;24.30;;;;;;;-1.37;82.25;100886.33;124138;1313;115053;-64
2024/02/01 03:07:45;;;;;;;56.00;25.10;;;;;;;-1.36;82.14;100890.89;124008;1333;115046;-66
2024/02/01 03:11:47;;;;;;;55.50;24.40;;;;;;;-1.36;82.17;100881.95;123303;1338;114999;-63
2024/02/01 03:20:43;;;;;;;48.00;24.20;;;;;;;-1.32;82.50;100874.64;126381;1296;636078;-69
2024/02/01 03:24:21;;;;;;;51.10;26.20;;;;;;;-1.30;82.79;100874.11;128044;1280;128719;-64
2024/02/01 03:28:30;;;;;;;50.00;23.40;;;;;;;-1.24;82.81;100872.77;126812;1300;114858;-63
2024/02/01 03:32:29;;;;;;;52.80;26.10;;;;;;;-1.13;83.00;100868.13;121837;1299;5417666;-66
2024/02/01 03:36:29;;;;;;;50.00;24.10;;;;;;;-1.01;83.18;100854.88;125423;1322;116815;-63
2024/02/01 03:44:46;;;;;;;48.30;27.00;;;;;;;-0.69;83.68;100834.91;125836;1300;636038;-63
2024/02/01 03:48:49;;;;;;;50.20;24.60;;;;;;;-0.56;84.22;100829.89;127578;1282;129021;-74
2024/02/01 03:52:52;;;;;;;29.30;16.80;;;;;;;-0.40;84.63;100816.45;127415;1284;114902;-65
2024/02/01 03:56:54;;;;;;;20.20;10.50;;;;;;;-0.21;85.06;100806.16;122784;1289;5425062;-67
2024/02/01 04:04:27;;;;;;;;;;;;;;;0.29;86.05;100795.00;124495;1326;114947;-63
2024/02/01 04:08:22;;;;;;;;;;;;;;;;;;;;;
2024/02/01 04:16:44;;;;;;;13.30;7.70;;;;;;;1.06;86.73;100790.02;126319;1299;636776;-63
2024/02/01 04:20:47;;;;;;;14.80;6.50;;;;;;;1.29;86.61;100789.77;127673;1277;128720;-64
2024/02/01 04:24:49;;;;;;;10.30;6.90;;;;;;;1.52;86.50;100786.69;127318;1298;114809;-70
2024/02/01 04:28:56;;;;;;;;;;;;;;;;;;;;;
2024/02/01 04:37:22;;;;;;;11.50;7.50;;;;;;;2.12;86.30;100793.73;125769;1301;636904;-63
2024/02/01 04:41:53;;;;;;;13.60;8.20;;;;;;;2.26;86.31;100793.11;128641;1292;128918;-64
2024/02/01 04:45:31;;;;;;;16.00;8.10;;;;;;;2.41;86.10;100788.25;128892;1269;114921;-64
2024/02/01 04:49:34;;;;;;;13.60;8.50;;;;;;;2.53;85.77;100781.27;124102;1280;5445139;-64
2024/02/01 04:53:36;;;;;;;13.10;7.60;;;;;;;2.62;85.54;100778.56;127506;1303;114755;-63
2024/02/01 04:57:43;;;;;;;13.00;8.90;;;;;;;2.70;85.21;100777.77;126566;1292;114810;-64
2024/02/01 05:01:44;;;;;;;12.80;8.80;;;;;;;2.79;85.20;100776.80;125909;1315;114938;-64
2024/02/01 05:13:35;;;;;;;12.70;8.40;;;;;;;3.09;84.75;100760.27;125493;1313;635368;-64
2024/02/01 05:17:40;;;;;;;12.40;7.70;;;;;;;3.17;84.59;100766.16;129167;1267;128707;-64
2024/02/01 05:21:39;;;;;;;;;;;;;;;;;;;;;
2024/02/01 05:29:28;;;;;;;10.20;6.90;;;;;;;3.37;84.09;100761.86;121678;1311;114911;-63
2024/02/01 05:33:16;;;;;;;8.10;5.40;;;;;;;3.44;84.08;100760.36;125135;1310;115003;-63
2024/02/01 05:40:58;;;;;;;;;;;;;;;;;;;;;
2024/02/01 05:45:21;;;;;;;;;;;;;;;;;;;;;
2024/02/01 05:49:23;;;;;;;;;;;;;;;;;;;;;
2024/02/01 05:52:34;;;;;;;10.10;6.20;;;;;;;4.05;83.68;100764.65;125975;1317;114843;-65
2024/02/01 05:56:29;;;;;;;10.60;6.10;;;;;;;4.13;83.56;100760.11;125883;1317;114901;-65
2024/02/01 06:00:37;;;;;;;6.90;5.00;;;;;;;4.22;83.45;100757.66;122071;1308;115358;-64
2024/02/01 06:12:39;;;;;;;9.90;5.40;;;;;;;4.52;83.00;100753.30;126359;1295;635973;-63
2024/02/01 06:16:31;;;;;;;8.50;5.80;;;;;;;4.57;82.71;100753.39;129030;1270;128208;-69
2024/02/01 06:20:15;;;;;;;9.20;5.50;;;;;;;4.65;82.94;100758.36;128483;1276;114823;-67
2024/02/01 06:24:18;;;;;;;8.00;5.70;;;;;;;4.72;83.21;100762.15;128152;1295;114820;-64
2024/02/01 06:28:20;;;;;;;12.00;6.30;;;;;;;4.78;83.22;100768.95;123239;1284;115041;-63
2024/02/01 06:32:28;;;;;;;10.60;7.20;;;;;;;4.80;83.76;100771.02;126672;1311;114944;-63
2024/02/01 06:36:34;;;;;;;12.10;7.10;;;;;;;4.83;83.86;100774.52;125190;1325;114989;-63
2024/02/01 06:40:36;;;;;;;;;;;;;;;;;;;;;
2024/02/01 06:48:51;;;;;;;9.40;5.50;;;;;;;4.85;84.16;100767.58;129176;1279;127861;-64
2024/02/01 07:02:01;;;;;;;9.20;6.00;;;;;;;4.87;84.36;100779.58;125886;1301;114953;-65
2024/02/01 07:05:58;;;;;;;8.40;6.00;;;;;;;4.89;84.68;100783.95;125931;1298;114860;-64
2024/02/01 07:58:49;;;;;;;6.90;4.20;;;;;;;5.10;85.74;100799.69;124993;1327;115115;-64
2024/02/01 08:10:47;;;;;;;10.70;5.60;;;;;;;5.12;85.92;100799.66;124969;1325;129827;-64
2024/02/01 08:14:50;;;;;;;;;;;;;;;;;;;;;
2024/02/01 08:19:20;;;;;;;10.60;5.90;;;;;;;5.22;86.34;100808.33;126377;1294;636280;-65
2024/02/01 08:23:41;;;;;;;9.20;6.00;;;;;;;5.23;86.29;100801.38;127742;1303;129069;-65
2024/02/01 08:27:16;;;;;;;;;;;;;;;;;;;;;
2024/02/01 08:31:41;;;;;;;12.40;5.90;;;;;;;5.33;86.59;100803.84;122501;1292;5408300;-64
2024/02/01 08:35:24;;;;;;;9.20;5.70;;;;;;;5.37;86.63;100811.39;125976;1313;114894;-65
2024/02/01 08:39:25;;;;;;;9.70;6.00;;;;;;;5.41;86.50;100813.42;125230;1326;114913;-67
2024/02/01 08:47:37;;;;;;;8.20;5.80;;;;;;;5.49;86.57;100813.63;126323;1295;636613;-66
2024/02/01 08:51:20;;;;;;;;;;;;;;;5.51;86.46;100816.79;128707;1286;127368;-65
2024/02/01 08:55:15;;;;;;;8.90;5.10;;;;;;;5.54;86.79;100819.73;127829;1283;116110;-65
2024/02/01 08:59:22;;;;;;;8.20;5.20;;;;;;;5.57;86.95;100815.06;126802;1300;114878;-63
2024/02/01 09:07:27;;;;;;;7.60;5.50;;;;;;;5.70;87.09;100822.77;126522;1295;635290;-65
2024/02/01 09:11:50;;;;;;;8.80;5.70;;;;;;;5.72;86.89;100829.27;128871;1276;128857;-64
2024/02/01 09:19:36;;;;;;;10.70;6.50;;;;;;;5.85;86.96;100838.60;123063;1285;5416103;-65
2024/02/01 09:23:38;;;;;;;26.80;12.10;;;;;;;5.90;87.04;100833.52;126212;1315;114890;-64
2024/02/01 09:27:35;;;;;;;;;;;;;;;;;;;;;
2024/02/01 09:31:27;;;;;;;10.90;6.80;;;;;;;5.91;87.03;100839.86;124119;1331;114790;-71
2024/02/01 09:35:27;;;;;;;;;;;;;;;;;;;;;
2024/02/01 09:39:52;;;;;;;9.80;6.90;;;;;;;6.03;87.55;100845.69;126270;1294;635902;-65
2024/02/01 09:43:46;;;;;;;8.70;5.90;;;;;;;6.03;87.32;100846.20;127982;1302;129094;-64
2024/02/01 09:47:49;;;;;;;8.70;5.60;;;;;;;6.09;87.44;100848.73;127379;1307;114986;-64
2024/02/01 09:51:54;;;;;;;8.50;5.20;;;;;;;6.15;87.54;100854.27;122580;1294;5523874;-64
2024/02/01 09:55:54;;;;;;;9.20;6.10;;;;;;;6.21;87.64;100860.88;124871;1310;114875;-65
2024/02/01 10:04:10;;;;;;;9.60;6.20;;;;;;;6.37;87.69;100857.52;125974;1299;637402;-65
2024/02/01 10:12:18;;;;;;;6.10;4.20;;;;;;;6.57;87.93;100844.27;128145;1281;114820;-65
2024/02/01 10:16:22;;;;;;;;;;;;;;;;;;;;;
2024/02/01 10:20:09;;;;;;;5.40;3.80;;;;;;;6.83;88.10;100832.63;125906;1307;115041;-65
2024/02/01 10:24:10;;;;;;;5.50;3.60;;;;;;;6.93;87.91;100825.60;125874;1317;114934;-64
2024/02/01 10:32:31;;;;;;;6.30;4.00;;;;;;;7.18;87.47;100819.45;126388;1295;636076;-65
2024/02/01 10:36:25;;;;;;;;;;;;;;;;;;;;;
2024/02/01 10:40:29;;;;;;;7.50;4.60;;;;;;;7.40;88.17;100814.95;126905;1309;114981;-68
2024/02/01 10:44:42;;;;;;;;;;;;;;;;;;;;;
2024/02/01 10:48:35;;;;;;;;;;;;;;;;;;;;;
2024/02/01 10:52:37;;;;;;;8.20;5.90;;;;;;;7.38;87.36;100795.08;125724;1302;114942;-65
2024/02/01 10:56:42;;;;;;;5.30;3.40;;;;;;;7.38;87.00;100797.23;124711;1311;114862;-64
2024/02/01 11:00:41;;;;;;;;;;;;;;;;;;;;;
2024/02/01 11:09:01;;;;;;;;;;;;;;;;;;;;;
2024/02/01 11:13:06;;;;;;;4.40;2.90;;;;;;;7.27;86.97;100791.14;128108;1284;129403;-65
2024/02/01 11:17:07;;;;;;;;;;;;;;;;;;;;;
2024/02/01 11:21:17;;;;;;;;;;;;;;;;;;;;;
2024/02/01 11:25:19;;;;;;;5.00;3.40;;;;;;;7.10;86.94;100785.39;125533;1305;115012;-70
2024/02/01 11:38:01;;;;;;;7.10;5.00;;;;;;;7.03;86.86;100776.54;127769;1284;127650;-66
2024/02/01 11:42:05;;;;;;;5.80;4.10;;;;;;;7.07;87.08;100777.11;126287;1293;115092;-65
2024/02/01 11:45:56;;;;;;;5.90;3.70;;;;;;;7.18;87.28;100783.20;121951;1301;5508113;-68
2024/02/01 11:49:56;;;;;;;6.50;4.20;;;;;;;7.32;87.27;100786.39;125141;1310;115002;-65
2024/02/01 11:53:51;;;;;;;6.20;3.50;;;;;;;7.42;87.19;100777.73;125009;1328;114978;-65
2024/02/01 11:57:54;;;;;;;9.90;5.40;;;;;;;7.57;87.41;100778.37;124932;1310;114995;-66
2024/02/01 12:06:07;;;;;;;6.60;4.70;;;;;;;7.79;86.67;100782.17;126080;1299;637750;-65
2024/02/01 12:10:10;;;;;;;;;;;;;;;;;;;;;
2024/02/01 12:14:01;;;;;;;;;;;;;;;;;;;;;
2024/02/01 12:18:08;;;;;;;3.00;1.90;;;;;;;7.89;85.17;100783.63;123908;1301;5408346;-65
2024/02/01 12:22:12;;;;;;;5.30;2.60;;;;;;;7.93;84.45;100784.78;125645;1304;114907;-67
2024/02/01 12:30:35;;;;;;;;;;;;;;;;;;;;;
2024/02/01 12:39:08;;;;;;;8.30;6.30;;;;;;;7.69;82.48;100781.05;126499;1298;114816;-65
2024/02/01 12:42:45;;;;;;;5.90;2.50;;;;;;;7.79;82.05;100782.16;121398;1318;5491236;-67
2024/02/01 12:46:33;;;;;;;5.00;2.30;;;;;;;7.77;81.26;100775.48;123945;1316;114869;-66
2024/02/01 12:55:00;;;;;;;4.90;2.70;;;;;;;7.60;80.60;100780.61;126104;1295;638827;-65
2024/02/01 12:59:02;;;;;;;;;;;;;;;;;;;;;
2024/02/01 13:03:19;;;;;;;5.90;2.40;;;;;;;7.26;80.15;100790.10;126128;1299;114862;-67
2024/02/01 13:11:29;;;;;;;4.80;2.90;;;;;;;7.29;81.34;100794.98;126570;1293;635663;-66
2024/02/01 13:15:31;;;;;;;6.00;3.60;;;;;;;7.47;81.63;100794.48;128908;1278;128939;-68
2024/02/01 13:19:23;;;;;;;11.80;7.80;;;;;;;7.61;81.06;100788.76;128058;1282;114851;-67
2024/02/01 13:23:38;;;;;;;8.00;5.00;;;;;;;7.66;80.64;100792.16;126835;1289;115041;-65
2024/02/01 13:27:44;;;;;;;3.70;2.70;;;;;;;7.67;80.32;100794.65;122615;1292;116652;-66
2024/02/01 13:31:47;;;;;;;3.50;2.50;;;;;;;7.66;80.20;100808.86;124850;1330;115326;-66
2024/02/01 13:40:06;;;;;;;3.20;1.30;;;;;;;7.56;78.45;100816.27;126431;1304;636082;-66
2024/02/01 13:44:08;;;;;;;;;;;;;;;;;;;;;
2024/02/01 13:48:04;;;;;;;4.30;3.10;;;;;;;7.56;78.85;100827.98;126748;1293;114972;-65
2024/02/01 13:52:08;;;;;;;3.20;2.20;;;;;;;7.54;78.04;100831.42;122276;1297;5416980;-65
2024/02/01 13:56:09;;;;;;;13.10;5.30;;;;;;;7.47;78.05;100830.02;125366;1302;114973;-65
2024/02/01 13:59:58;;;;;;;22.50;7.90;;;;;;;7.42;78.15;100836.57;125435;1324;114993;-66
2024/02/01 14:03:59;;;;;;;12.60;4.20;;;;;;;7.37;78.13;100836.71;124728;1313;115570;-65
2024/02/01 14:07:59;;;;;;;;;;;;;;;;;;;;;
2024/02/01 14:12:08;;;;;;;;;;;;;;;;;;;;;
2024/02/01 14:16:12;;;;;;;6.00;3.70;;;;;;;7.29;78.15;100853.25;128921;1294;127823;-65
2024/02/01 14:24:16;;;;;;;4.50;1.60;;;;;;;7.29;76.99;100853.26;122171;1310;5456821;-67
2024/02/01 14:32:36;;;;;;;;;;;;;;;;;;;;;
2024/02/01 14:36:31;;;;;;;;;;;;;;;;;;;;;
2024/02/01 14:40:35;;;;;;;5.60;2.60;;;;;;;7.06;75.71;100863.80;126486;1290;114930;-66
2024/02/01 14:44:36;;;;;;;6.20;4.00;;;;;;;6.97;75.69;100860.13;122267;1302;5424799;-65
2024/02/01 14:53:04;;;;;;;3.60;2.20;;;;;;;6.78;75.54;100872.48;125982;1299;638876;-66
2024/02/01 14:57:06;;;;;;;4.60;1.90;;;;;;;6.67;75.38;100881.65;127654;1304;129336;-67
2024/02/01 15:01:00;;;;;;;;;;;;;;;;;;;;;
2024/02/01 15:05:01;;;;;;;7.60;3.20;;;;;;;6.52;75.29;100894.24;122895;1304;5437530;-64
2024/02/01 15:09:02;;;;;;;;;;;;;;;;;;;;;
2024/02/01 15:13:11;;;;;;;;;;;;;;;;;;;;;
2024/02/01 15:17:26;;;;;;;5.90;2.70;;;;;;;6.44;75.09;100889.11;126045;1298;636268;-65
2024/02/01 15:21:30;;;;;;;7.80;3.90;;;;;;;6.40;75.23;100896.83;128143;1273;128830;-64
2024/02/01 15:25:39;;;;;;;10.50;4.60;;;;;;;6.38;75.07;100899.02;128652;1273;114910;-67
2024/02/01 15:29:34;;;;;;;10.10;4.70;;;;;;;6.33;74.90;100899.65;124235;1280;5439324;-64
2024/02/01 15:33:28;;;;;;;6.00;3.60;;;;;;;6.26;74.95;100903.70;126757;1290;114973;-65
2024/02/01 15:37:28;;;;;;;;;;;;;;;;;;;;;
2024/02/01 15:41:08;;;;;;;;;;;;;;;;;;;;;
2024/02/01 15:49:29;;;;;;;3.30;2.00;;;;;;;5.85;73.95;100919.25;126399;1295;636229;-67
2024/02/01 15:53:33;;;;;;;6.20;2.10;;;;;;;5.72;73.92;100921.44;129125;1274;128545;-65
2024/02/01 15:57:35;;;;;;;5.00;1.80;;;;;;;5.62;73.92;100929.42;128260;1292;114906;-68
2024/02/01 16:01:42;;;;;;;3.90;1.60;;;;;;;5.57;73.86;100936.95;123010;1295;5425177;-66
2024/02/01 16:05:43;;;;;;;6.50;2.10;;;;;;;5.56;73.82;100945.30;126168;1315;115485;-66
2024/02/01 16:09:38;;;;;;;4.20;1.80;;;;;;;5.58;73.75;100948.81;124653;1313;114904;-65
2024/02/01 16:13:34;;;;;;;5.20;2.60;;;;;;;5.61;73.79;100953.37;123828;1320;115107;-66
2024/02/01 16:17:53;;;;;;;5.80;3.10;;;;;;;5.68;73.86;100952.36;126022;1301;636112;-65
2024/02/01 16:21:46;;;;;;;5.10;2.70;;;;;;;5.70;73.69;100952.84;129038;1274;129173;-66
2024/02/01 16:25:51;;;;;;;8.40;2.50;;;;;;;5.72;73.51;100951.02;128007;1288;115804;-66
2024/02/01 16:29:25;;;;;;;8.40;2.50;;;;;;;5.75;73.32;100957.02;124143;1282;5521372;-66
2024/02/01 16:33:29;;;;;;;;;;;;;;;;;;;;;
2024/02/01 16:37:44;;;;;;;4.80;1.80;;;;;;;5.79;73.00;100957.64;126797;1293;114938;-66
2024/02/01 16:41:42;;;;;;;;;;;;;;;;;;;;;
2024/02/01 16:45:53;;;;;;;8.90;2.40;;;;;;;5.84;72.74;100969.61;125828;1317;127139;-66
2024/02/01 16:49:54;;;;;;;6.00;2.60;;;;;;;5.85;72.67;100969.56;125876;1298;114834;-65
2024/02/01 16:53:57;;;;;;;;;;;;;;;;;;;;;
2024/02/01 16:57:57;;;;;;;;;;;;;;;;;;;;;
2024/02/01 17:02:15;;;;;;;4.70;1.90;;;;;;;5.90;72.49;100977.28;123425;1338;115217;-68
2024/02/01 17:10:30;;;;;;;7.40;3.00;;;;;;;5.96;72.26;100990.83;126483;1308;635208;-65
2024/02/01 17:14:32;;;;;;;8.50;2.80;;;;;;;5.96;72.28;100992.95;128922;1286;129173;-64
2024/02/01 17:18:38;;;;;;;6.50;2.50;;;;;;;5.97;72.14;100993.64;127979;1292;114960;-65
2024/02/01 17:22:42;;;;;;;4.70;2.50;;;;;;;5.98;71.96;100997.70;123214;1289;5425444;-66
2024/02/01 17:30:41;;;;;;;6.20;3.00;;;;;;;6.00;72.11;100992.19;126077;1299;114884;-65
2024/02/01 17:34:54;;;;;;;;;;;;;;;;;;;;;
2024/02/01 17:47:22;;;;;;;7.10;3.00;;;;;;;6.00;71.66;100993.41;126413;1295;636106;-65
2024/02/01 17:51:27;;;;;;;8.30;2.90;;;;;;;5.97;71.58;100995.77;129364;1270;129000;-65
2024/02/01 17:55:24;;;;;;;;;;;;;;;;;;;;;
2024/02/01 17:59:14;;;;;;;;;;;;;;;;;;;;;
2024/02/01 18:03:12;;;;;;;;;;;;;;;;;;;;;
2024/02/01 18:07:40;;;;;;;4.80;2.20;;;;;;;5.97;71.46;101014.21;128472;1297;114829;-64
2024/02/01 18:11:19;;;;;;;7.20;2.30;;;;;;;5.96;71.30;101014.95;128511;1297;115124;-66
2024/02/01 18:15:19;;;;;;;;;;;;;;;;;;;;;
2024/02/01 18:19:20;;;;;;;7.90;2.80;;;;;;;5.95;71.10;101009.83;125944;1304;114873;-64
2024/02/01 18:23:21;;;;;;;8.20;2.50;;;;;;;5.93;71.26;101015.34;125187;1323;114981;-64
2024/02/01 18:31:46;;;;;;;;;;;;;;;;;;;;;
2024/02/01 18:35:45;;;;;;;;;;;;;;;;;;;;;
2024/02/01 18:39:58;;;;;;;9.00;2.50;;;;;;;5.88;71.27;101029.60;127940;1282;116505;-64
2024/02/01 18:44:01;;;;;;;4.80;1.90;;;;;;;5.84;71.03;101027.02;122819;1290;5455490;-67
2024/02/01 18:47:57;;;;;;;;;;;;;;;;;;;;;
2024/02/01 18:52:02;;;;;;;6.20;2.50;;;;;;;5.63;70.76;101035.20;125513;1323;115357;-65
2024/02/01 18:56:05;;;;;;;6.80;2.40;;;;;;;5.48;70.95;101044.31;124532;1331;114871;-67
2024/02/01 19:00:10;;;;;;;8.10;2.70;;;;;;;5.31;70.80;101045.82;123812;1320;129755;-67
2024/02/01 19:04:09;;;;;;;;;;;;;;;;;;;;;
2024/02/01 19:12:30;;;;;;;6.90;2.20;;;;;;;4.90;71.40;101047.48;126445;1295;637557;-64
2024/02/01 19:16:38;;;;;;;9.10;2.80;;;;;;;4.77;71.46;101053.50;129307;1270;127842;-64
2024/02/01 19:20:46;;;;;;;6.20;2.50;;;;;;;4.65;71.70;101060.58;128657;1275;114887;-64
2024/02/01 19:24:48;;;;;;;9.80;2.60;;;;;;;4.54;71.83;101059.10;124872;1270;5440122;-65
2024/02/01 19:29:26;;;;;;;6.10;1.80;;;;;;;4.45;71.98;101070.89;126978;1291;114995;-65
2024/02/01 19:32:53;;;;;;;8.80;2.40;;;;;;;4.35;72.28;101076.65;126036;1314;115213;-63
2024/02/01 19:36:07;;;;;;;7.30;2.60;;;;;;;4.28;72.40;101079.57;126115;1298;114946;-65
2024/02/01 19:40:14;;;;;;;10.30;3.00;;;;;;;4.23;72.52;101076.80;126000;1293;128946;-69
2024/02/01 19:44:19;;;;;;;8.20;3.20;;;;;;;4.17;72.58;101076.33;126122;1295;114881;-63
2024/02/01 19:48:13;;;;;;;;;;;;;;;;;;;;;
2024/02/01 19:52:07;;;;;;;9.90;2.40;;;;;;;4.07;72.85;101078.72;124990;1305;114956;-66
2024/02/01 19:56:00;;;;;;;;;;;;;;;;;;;;;
2024/02/01 19:59:51;;;;;;;8.00;2.60;;;;;;;4.07;73.28;101089.15;124318;1329;129537;-64
2024/02/01 20:03:53;;;;;;;14.80;3.30;;;;;;;4.12;73.33;101089.99;124378;1314;114978;-64
2024/02/01 20:07:42;;;;;;;;;;;;;;;;;;;;;
2024/02/01 20:16:04;;;;;;;7.90;2.50;;;;;;;4.36;73.60;101087.79;126223;1298;636089;-63
2024/02/01 20:20:07;;;;;;;13.00;2.80;;;;;;;4.42;73.77;101082.95;127126;1289;128012;-63
2024/02/01 20:24:16;;;;;;;8.80;2.80;;;;;;;4.50;73.73;101082.14;126272;1295;114886;-63
2024/02/01 20:28:14;;;;;;;;;;;;;;;;;;;;;
2024/02/01 20:36:39;;;;;;;10.50;2.70;;;;;;;4.73;73.86;101090.89;126081;1311;636412;-62
2024/02/01 20:40:44;;;;;;;10.00;2.40;;;;;;;4.78;73.66;101092.26;128008;1299;128617;-65
2024/02/01 20:44:47;;;;;;;10.60;2.20;;;;;;;4.83;73.82;101091.30;128053;1283;116281;-64
2024/02/01 20:48:49;;;;;;;9.70;3.00;;;;;;;4.88;73.59;101089.99;123369;1287;5436434;-65
2024/02/01 20:52:53;;;;;;;9.90;2.80;;;;;;;4.91;73.78;101089.94;126481;1313;115367;-64
2024/02/01 20:56:55;;;;;;;8.20;3.30;;;;;;;4.93;73.67;101092.77;125503;1319;114930;-62
2024/02/01 21:00:59;;;;;;;6.70;2.60;;;;;;;4.94;73.66;101090.27;125007;1325;115095;-64
2024/02/01 21:05:03;;;;;;;7.50;2.80;;;;;;;4.96;73.53;101091.13;124511;1324;130020;-65
2024/02/01 21:13:38;;;;;;;6.60;1.40;;;;;;;5.04;73.53;101092.26;126285;1295;636115;-62
2024/02/01 21:17:47;;;;;;;8.20;1.90;;;;;;;5.04;73.70;101103.76;129752;1264;127118;-64
2024/02/01 21:21:50;;;;;;;7.80;2.10;;;;;;;5.06;73.64;101107.27;128829;1270;116360;-66
2024/02/01 21:30:00;;;;;;;;;;;;;;;;;;;;;
2024/02/01 21:34:01;;;;;;;14.10;2.40;;;;;;;5.12;73.48;101106.48;125931;1298;115013;-64
2024/02/01 21:38:10;;;;;;;9.40;2.40;;;;;;;5.14;73.44;101102.55;125901;1298;129987;-64
2024/02/01 21:42:09;;;;;;;3.90;2.60;;;;;;;5.14;73.50;101111.60;125358;1301;115292;-63
2024/02/01 21:54:21;;;;;;;10.60;2.80;;;;;;;5.19;73.56;101119.48;126313;1295;636658;-62
2024/02/01 21:58:19;;;;;;;7.80;1.70;;;;;;;5.19;73.58;101128.00;127418;1281;128836;-62
2024/02/01 22:02:24;;;;;;;9.20;2.70;;;;;;;5.16;73.84;101136.35;126338;1287;114942;-63
2024/02/01 22:06:24;;;;;;;8.50;2.10;;;;;;;5.16;73.92;101148.74;121740;1298;5443922;-67
2024/02/01 22:18:47;;;;;;;9.90;3.10;;;;;;;5.21;73.96;101150.99;125855;1308;636234;-63
2024/02/01 22:22:48;;;;;;;10.00;2.30;;;;;;;5.18;74.07;101156.34;127441;1280;128923;-62
2024/02/01 22:26:52;;;;;;;10.20;2.40;;;;;;;5.19;73.93;101156.87;127750;1296;115382;-63
2024/02/01 22:34:34;;;;;;;;;;;;;;;5.15;74.06;101157.61;125233;1323;114969;-64
2024/02/01 22:38:25;;;;;;;10.70;2.60;;;;;;;5.11;73.94;101158.02;125235;1323;115359;-64
2024/02/01 22:42:24;;;;;;;8.40;1.90;;;;;;;5.06;73.63;101155.09;125216;1306;129852;-62
2024/02/01 22:50:16;;;;;;;;;;;;;;;;;;;;;
2024/02/01 22:54:37;;;;;;;9.40;2.90;;;;;;;4.79;73.81;101158.77;126457;1296;636069;-63
2024/02/01 22:58:39;;;;;;;11.00;2.10;;;;;;;4.68;73.89;101164.93;127535;1284;127779;-63
2024/02/01 23:02:47;;;;;;;10.40;2.60;;;;;;;4.57;74.08;101160.27;126932;1284;115096;-63
2024/02/01 23:10:56;;;;;;;;;;;;;;;;;;;;;
2024/02/01 23:19:18;;;;;;;9.30;2.60;;;;;;;4.43;74.52;101170.64;126454;1295;636870;-62
2024/02/01 23:23:12;;;;;;;;;;;;;;;;;;;;;
2024/02/01 23:27:08;;;;;;;;;;;;;;;;;;;;;
2024/02/01 23:31:05;;;;;;;7.00;2.10;;;;;;;4.45;74.73;101177.55;124008;1289;5560972;-66
2024/02/01 23:35:09;;;;;;;14.50;3.50;;;;;;;4.47;74.91;101178.40;126314;1293;114881;-62
2024/02/01 23:39:10;;;;;;;9.60;3.00;;;;;;;4.49;74.87;101179.80;125701;1311;114981;-64
2024/02/01 23:43:11;;;;;;;9.80;2.10;;;;;;;4.52;75.04;101171.27;124641;1308;130750;-64
2024/02/01 23:51:31;;;;;;;9.30;2.50;;;;;;;4.58;75.09;101159.71;126306;1292;636864;-63
2024/02/01 23:55:34;;;;;;;9.00;3.20;;;;;;;4.56;75.06;101163.63;128321;1280;128960;-61
